Time;durP1;ratioP1;P1;durP2;ratioP2;P2;SDS_P1;SDS_P2;PMS_P1;PMS_P2;Temp;Humidity;BMP_temperature;BMP_pressure;BME280_temperature;BME280_humidity;BME280_pressure;Samples;Min_cycle;Max_cycle;Signal;HPM_P1;HPM_P2
2022/06/18 00:02:18;;;;;;;10.13;7.30;;;21.90;68.60;;;;;;4994551;28;20971;-84
2022/06/18 00:04:46;;;;;;;6.77;5.33;;;21.80;69.10;;;;;;5002040;28;20475;-85
2022/06/18 00:07:16;;;;;;;6.10;5.27;;;21.70;69.10;;;;;;5004480;28;20457;-84
2022/06/18 00:09:50;;;;;;;5.60;5.00;;;21.60;69.30;;;;;;5005029;28;20454;-84
2022/06/18 00:15:10;;;;;;;6.57;4.90;;;21.40;70.00;;;;;;5001877;28;20441;-84
2022/06/18 00:17:37;;;;;;;5.77;4.73;;;21.40;70.40;;;;;;4994461;28;20473;-84
2022/06/18 00:20:04;;;;;;;6.33;5.73;;;21.40;70.30;;;;;;4994190;28;20455;-84
2022/06/18 00:22:31;;;;;;;8.03;5.13;;;21.40;70.40;;;;;;4994985;28;20493;-84
2022/06/18 00:25:00;;;;;;;4.93;4.50;;;21.40;71.00;;;;;;4996492;28;20481;-85
2022/06/18 00:27:27;;;;;;;4.60;3.97;;;21.30;70.00;;;;;;5004514;28;20454;-84
2022/06/18 00:29:54;;;;;;;6.10;5.13;;;21.30;70.20;;;;;;4998854;28;20456;-85
2022/06/18 00:32:20;;;;;;;6.23;5.13;;;21.30;70.40;;;;;;4996411;28;20504;-84
2022/06/18 00:34:47;;;;;;;5.17;4.67;;;21.20;70.30;;;;;;5003949;28;20988;-84
2022/06/18 00:37:17;;;;;;;4.83;4.43;;;21.10;70.90;;;;;;5003213;28;20461;-84
2022/06/18 00:39:44;;;;;;;6.73;4.90;;;21.00;71.20;;;;;;5003382;28;20450;-84
2022/06/18 00:42:24;;;;;;;7.27;5.20;;;20.90;71.70;;;;;;4999727;28;20470;-84
2022/06/18 00:44:54;;;;;;;5.30;4.80;;;20.90;71.90;;;;;;5002058;28;20475;-85
2022/06/18 00:47:25;;;;;;;6.23;5.20;;;20.90;72.10;;;;;;5002215;28;20836;-84
2022/06/18 00:49:56;;;;;;;5.60;5.10;;;20.90;72.10;;;;;;5004102;28;20786;-85
2022/06/18 00:52:28;;;;;;;5.37;4.87;;;21.00;72.20;;;;;;5007599;28;20486;-84
2022/06/18 00:55:01;;;;;;;5.20;4.70;;;21.00;71.90;;;;;;5014625;28;20486;-84
2022/06/18 00:57:33;;;;;;;6.03;4.73;;;21.00;72.10;;;;;;4995062;28;20958;-84
2022/06/18 01:00:05;;;;;;;7.20;5.13;;;20.90;72.30;;;;;;4994144;28;20465;-84
2022/06/18 01:02:35;;;;;;;5.10;4.60;;;20.80;72.60;;;;;;4998858;28;20479;-84
2022/06/18 01:05:02;;;;;;;5.20;4.70;;;20.80;72.70;;;;;;4999339;28;20496;-84
2022/06/18 01:07:32;;;;;;;5.00;4.60;;;20.80;73.00;;;;;;4996486;28;20450;-84
2022/06/18 01:10:00;;;;;;;4.90;4.27;;;20.80;72.80;;;;;;4996238;28;20906;-83
2022/06/18 01:12:27;;;;;;;5.87;4.67;;;20.80;73.20;;;;;;4994867;28;20448;-84
2022/06/18 01:15:01;;;;;;;5.27;4.77;;;20.80;73.10;;;;;;4996588;28;20467;-84
2022/06/18 01:17:29;;;;;;;4.53;4.13;;;20.80;72.10;;;;;;4998279;28;20450;-84
2022/06/18 01:19:56;;;;;;;4.90;4.27;;;20.80;72.20;;;;;;4998688;28;20501;-83
2022/06/18 01:22:34;;;;;;;4.80;4.40;;;20.70;71.70;;;;;;4998785;28;20494;-83
2022/06/18 01:25:05;;;;;;;5.10;4.70;;;20.70;72.20;;;;;;4999586;28;20460;-85
2022/06/18 01:27:32;;;;;;;5.20;4.80;;;20.70;72.20;;;;;;5000728;28;20488;-84
2022/06/18 01:29:58;;;;;;;4.77;4.30;;;20.70;72.40;;;;;;5003350;28;20461;-85
2022/06/18 01:32:25;;;;;;;5.57;5.07;;;20.70;72.40;;;;;;5004781;28;20461;-83
2022/06/18 01:34:53;;;;;;;4.03;3.73;;;20.60;72.40;;;;;;5005161;28;20489;-84
2022/06/18 01:37:20;;;;;;;5.03;4.07;;;20.60;72.40;;;;;;5006738;28;21054;-84
2022/06/18 01:39:49;;;;;;;6.00;4.20;;;20.60;72.60;;;;;;5009827;28;20446;-84
2022/06/18 01:42:23;;;;;;;4.70;4.10;;;20.60;72.80;;;;;;4997453;28;20489;-85
2022/06/18 01:44:54;;;;;;;4.87;4.47;;;20.50;72.50;;;;;;4998672;28;20895;-84
2022/06/18 01:47:25;;;;;;;5.00;4.50;;;20.60;72.70;;;;;;4996869;28;20456;-84
2022/06/18 01:49:59;;;;;;;4.80;4.33;;;20.60;72.50;;;;;;4995585;28;20998;-83
2022/06/18 01:52:34;;;;;;;5.43;4.93;;;20.50;72.60;;;;;;4994475;28;20450;-85
2022/06/18 01:55:07;;;;;;;5.00;4.07;;;20.40;73.00;;;;;;5000201;28;20465;-85
2022/06/18 01:57:39;;;;;;;6.07;4.30;;;20.40;73.00;;;;;;5008749;28;20457;-83
2022/06/18 02:00:12;;;;;;;4.90;4.50;;;20.40;73.20;;;;;;5007314;28;20446;-85
2022/06/18 02:02:38;;;;;;;5.40;4.90;;;20.30;73.40;;;;;;4995918;28;20581;-84
2022/06/18 02:05:07;;;;;;;5.40;4.00;;;20.20;74.30;;;;;;4994793;28;20470;-84
2022/06/18 02:07:34;;;;;;;4.40;4.00;;;20.00;74.60;;;;;;5000803;28;20449;-84
2022/06/18 02:10:04;;;;;;;4.83;4.30;;;20.00;75.10;;;;;;5000155;28;20455;-84
2022/06/18 02:12:34;;;;;;;6.10;5.20;;;20.00;75.50;;;;;;4996258;28;20552;-84
2022/06/18 02:15:09;;;;;;;9.53;4.33;;;19.90;75.90;;;;;;4997618;28;20469;-83
2022/06/18 02:17:37;;;;;;;5.03;4.53;;;19.80;76.80;;;;;;5000349;28;20979;-84
2022/06/18 02:20:09;;;;;;;4.83;4.43;;;19.80;77.10;;;;;;5000444;28;20459;-84
2022/06/18 02:22:41;;;;;;;6.53;4.43;;;19.80;77.10;;;;;;5000730;28;20488;-84
2022/06/18 02:25:08;;;;;;;4.17;3.73;;;19.80;77.40;;;;;;5005418;28;20503;-85
2022/06/18 02:27:36;;;;;;;6.03;5.07;;;19.80;77.30;;;;;;5000510;28;20460;-83
2022/06/18 02:30:05;;;;;;;5.47;4.97;;;19.80;78.20;;;;;;5001045;28;20451;-84
2022/06/18 02:32:38;;;;;;;5.17;4.67;;;19.80;77.60;;;;;;5000131;28;20451;-84
2022/06/18 02:35:11;;;;;;;4.80;4.40;;;19.70;78.20;;;;;;5000131;28;20503;-83
2022/06/18 02:37:39;;;;;;;5.10;4.70;;;19.70;78.60;;;;;;4999940;28;20472;-84
2022/06/18 02:40:16;;;;;;;6.30;4.67;;;19.60;79.00;;;;;;5000368;28;20965;-85
2022/06/18 02:42:44;;;;;;;5.33;4.73;;;19.70;79.80;;;;;;5020001;28;20487;-83
2022/06/18 02:45:12;;;;;;;5.13;3.83;;;19.80;79.50;;;;;;5005295;28;21006;-84
2022/06/18 02:47:39;;;;;;;5.50;5.00;;;19.70;79.60;;;;;;5010949;28;20447;-83
2022/06/18 02:50:09;;;;;;;5.10;4.60;;;19.70;80.00;;;;;;5005213;28;20448;-84
2022/06/18 02:52:41;;;;;;;5.80;4.70;;;19.60;80.50;;;;;;5005508;28;20425;-84
2022/06/18 02:55:19;;;;;;;5.50;5.00;;;19.60;80.90;;;;;;4996976;28;20899;-84
2022/06/18 02:57:49;;;;;;;7.50;5.03;;;19.50;81.60;;;;;;5006238;28;20456;-84
2022/06/18 03:00:17;;;;;;;5.43;4.77;;;19.40;83.20;;;;;;5009440;28;20504;-81
2022/06/18 03:02:44;;;;;;;4.50;4.10;;;19.30;83.90;;;;;;5012376;28;20495;-82
2022/06/18 03:05:19;;;;;;;4.97;4.47;;;19.30;84.10;;;;;;5011067;28;20474;-83
2022/06/18 03:07:45;;;;;;;6.53;4.53;;;19.20;84.30;;;;;;5010315;28;20451;-83
2022/06/18 03:12:56;;;;;;;4.70;4.20;;;19.20;85.20;;;;;;5004033;28;20436;-81
2022/06/18 03:15:26;;;;;;;4.93;4.40;;;19.20;85.70;;;;;;5013950;28;20458;-82
2022/06/18 03:17:53;;;;;;;4.90;4.20;;;19.20;86.10;;;;;;5014846;28;20459;-81
2022/06/18 03:20:22;;;;;;;7.37;4.80;;;19.10;86.00;;;;;;5012647;28;20441;-85
2022/06/18 03:22:50;;;;;;;5.80;4.67;;;19.10;86.50;;;;;;5010325;28;20487;-82
2022/06/18 03:25:16;;;;;;;5.00;4.40;;;19.10;86.70;;;;;;5004054;28;20475;-84
2022/06/18 03:27:43;;;;;;;5.10;4.60;;;19.10;86.30;;;;;;5000692;28;21060;-85
2022/06/18 03:30:11;;;;;;;4.90;4.50;;;19.10;86.70;;;;;;5001881;28;20998;-82
2022/06/18 03:32:39;;;;;;;5.17;4.77;;;19.10;87.10;;;;;;5002981;28;20924;-83
2022/06/18 03:35:07;;;;;;;5.63;4.20;;;19.10;87.50;;;;;;5002191;28;20885;-83
2022/06/18 03:37:33;;;;;;;9.23;4.87;;;19.10;87.50;;;;;;5001340;28;20460;-82
2022/06/18 03:40:00;;;;;;;5.57;4.10;;;19.00;87.50;;;;;;5005757;28;20853;-83
2022/06/18 03:42:27;;;;;;;4.67;4.27;;;19.10;87.40;;;;;;5010598;28;20475;-83
2022/06/18 03:44:53;;;;;;;5.70;4.63;;;19.10;88.30;;;;;;5008698;28;20507;-84
2022/06/18 03:47:21;;;;;;;5.27;4.77;;;19.10;87.50;;;;;;5001953;28;20452;-85
2022/06/18 03:49:49;;;;;;;4.67;4.13;;;19.00;87.60;;;;;;5000247;28;20875;-84
2022/06/18 03:52:16;;;;;;;5.27;3.90;;;19.00;88.10;;;;;;5000145;28;20465;-84
2022/06/18 03:54:42;;;;;;;10.07;5.30;;;19.00;88.40;;;;;;5000393;28;20471;-85
2022/06/18 03:57:15;;;;;;;6.40;5.10;;;19.00;88.50;;;;;;5001040;28;20459;-81
2022/06/18 03:59:42;;;;;;;5.40;4.77;;;19.00;88.50;;;;;;5003648;28;20456;-82
2022/06/18 04:02:09;;;;;;;4.67;4.27;;;19.00;88.50;;;;;;5014521;28;20486;-83
2022/06/18 04:04:36;;;;;;;7.43;4.17;;;19.00;88.50;;;;;;5008031;28;20472;-83
2022/06/18 04:07:05;;;;;;;5.20;4.80;;;19.00;88.80;;;;;;5000689;28;20473;-84
2022/06/18 04:09:32;;;;;;;6.87;4.97;;;19.00;88.70;;;;;;5003108;28;20465;-83
2022/06/18 04:11:59;;;;;;;5.60;3.97;;;19.00;88.60;;;;;;5003286;28;20446;-84
2022/06/18 04:14:26;;;;;;;7.50;4.43;;;19.00;89.20;;;;;;5001615;28;20447;-84
2022/06/18 04:16:53;;;;;;;4.50;4.10;;;19.10;88.90;;;;;;5001599;28;20975;-85
2022/06/18 04:19:19;;;;;;;4.43;4.13;;;19.10;88.80;;;;;;5003955;28;20956;-83
2022/06/18 04:21:46;;;;;;;4.60;4.20;;;19.10;88.90;;;;;;5004149;28;20485;-84
2022/06/18 04:24:14;;;;;;;5.07;4.57;;;19.20;89.10;;;;;;5002827;28;20459;-84
2022/06/18 04:26:41;;;;;;;4.90;4.50;;;19.20;88.80;;;;;;5002766;28;20451;-85
2022/06/18 04:29:07;;;;;;;6.13;5.10;;;19.20;89.40;;;;;;5018948;28;20427;-81
2022/06/18 04:31:34;;;;;;;6.10;4.10;;;19.20;89.60;;;;;;5013536;28;20445;-82
2022/06/18 04:34:01;;;;;;;5.17;4.67;;;19.30;89.60;;;;;;5005802;28;20447;-83
2022/06/18 04:36:33;;;;;;;4.40;4.10;;;19.30;89.40;;;;;;5003679;28;20464;-82
2022/06/18 04:39:00;;;;;;;8.17;4.50;;;19.30;89.70;;;;;;5004750;28;20449;-83
2022/06/18 04:41:28;;;;;;;5.57;4.43;;;19.30;89.10;;;;;;5007512;28;20463;-85
2022/06/18 04:43:56;;;;;;;5.17;4.73;;;19.40;89.70;;;;;;5009027;28;20524;-82
2022/06/18 04:46:23;;;;;;;5.30;4.73;;;19.40;89.20;;;;;;5003390;28;20530;-82
2022/06/18 04:48:49;;;;;;;6.07;4.63;;;19.50;88.70;;;;;;5003457;28;20455;-83
2022/06/18 04:51:16;;;;;;;7.97;5.27;;;19.40;88.70;;;;;;5001948;28;20447;-83
2022/06/18 04:53:43;;;;;;;6.20;5.10;;;19.40;88.40;;;;;;4999963;28;20446;-84
2022/06/18 04:56:10;;;;;;;5.43;4.97;;;19.50;88.60;;;;;;5002254;28;20476;-84
2022/06/18 04:58:39;;;;;;;5.23;4.73;;;19.60;88.20;;;;;;5001194;28;20455;-83
2022/06/18 05:01:06;;;;;;;5.40;4.60;;;19.60;87.00;;;;;;5002133;28;20448;-84
2022/06/18 05:03:33;;;;;;;4.70;4.30;;;19.60;86.50;;;;;;5005303;28;21027;-83
2022/06/18 05:06:00;;;;;;;6.23;4.97;;;19.70;86.50;;;;;;5009626;28;20468;-82
2022/06/18 05:08:26;;;;;;;5.50;5.00;;;19.70;85.70;;;;;;5003597;28;20451;-82
2022/06/18 05:10:53;;;;;;;6.13;4.43;;;19.70;85.30;;;;;;5008035;28;20447;-81
2022/06/18 05:13:20;;;;;;;5.60;5.10;;;19.80;85.40;;;;;;5004442;28;20437;-82
2022/06/18 05:15:49;;;;;;;5.07;4.57;;;19.90;84.70;;;;;;5011816;28;20542;-82
2022/06/18 05:18:18;;;;;;;4.47;4.07;;;20.00;83.80;;;;;;5015337;28;20471;-82
2022/06/18 05:20:48;;;;;;;5.50;5.00;;;20.10;84.60;;;;;;4998631;28;20461;-83
2022/06/18 05:23:15;;;;;;;5.10;4.70;;;20.40;83.30;;;;;;5003058;28;20490;-83
2022/06/18 05:25:42;;;;;;;4.43;4.03;;;20.70;81.60;;;;;;5010302;28;20475;-83
2022/06/18 05:28:10;;;;;;;5.20;4.63;;;21.20;80.40;;;;;;5009728;28;20454;-84
2022/06/18 05:30:37;;;;;;;6.67;5.37;;;21.50;78.10;;;;;;5011881;28;20461;-83
2022/06/18 05:33:06;;;;;;;5.20;4.70;;;21.90;77.20;;;;;;5000920;28;20443;-84
2022/06/18 05:35:34;;;;;;;5.23;4.37;;;22.30;75.50;;;;;;5000709;28;20473;-84
2022/06/18 05:38:01;;;;;;;5.57;4.93;;;22.70;73.80;;;;;;5001238;28;20474;-84
2022/06/18 05:40:27;;;;;;;6.90;4.47;;;23.00;72.70;;;;;;5001513;28;20453;-85
2022/06/18 05:42:54;;;;;;;4.80;4.00;;;23.40;71.60;;;;;;5007143;23;20549;-84
2022/06/18 05:45:22;;;;;;;5.50;4.40;;;23.80;69.70;;;;;;5005063;28;20477;-83
2022/06/18 05:47:49;;;;;;;4.63;4.20;;;24.10;68.50;;;;;;4999844;28;20451;-85
2022/06/18 05:50:20;;;;;;;5.33;4.93;;;24.40;66.70;;;;;;4994387;28;20452;-85
2022/06/18 05:52:47;;;;;;;5.43;4.47;;;24.70;65.10;;;;;;4998843;28;20467;-85
2022/06/18 05:55:14;;;;;;;5.30;3.90;;;24.80;64.30;;;;;;5016585;28;20437;-85
2022/06/18 05:57:48;;;;;;;5.40;4.40;;;24.90;63.70;;;;;;5015559;28;20443;-85
2022/06/18 06:00:18;;;;;;;5.20;4.70;;;25.10;62.90;;;;;;5018612;28;20477;-84
2022/06/18 06:02:44;;;;;;;4.30;3.90;;;25.30;62.40;;;;;;5005902;28;20552;-85
2022/06/18 06:05:11;;;;;;;4.17;3.87;;;25.40;62.00;;;;;;5008036;28;20435;-85
2022/06/18 06:07:39;;;;;;;4.63;4.07;;;25.50;60.90;;;;;;5017585;28;20448;-85
2022/06/18 06:13:05;;;;;;;5.23;4.40;;;26.00;60.20;;;;;;5015377;28;20450;-84
2022/06/18 06:15:31;;;;;;;4.20;3.90;;;26.40;59.00;;;;;;5009836;28;20467;-85
2022/06/18 06:17:58;;;;;;;5.83;4.43;;;26.40;59.00;;;;;;5014257;28;20458;-85
2022/06/18 06:20:28;;;;;;;7.33;3.47;;;26.60;59.00;;;;;;5003593;28;20451;-85
2022/06/18 06:22:56;;;;;;;7.17;4.50;;;26.30;59.10;;;;;;5001068;28;20483;-84
2022/06/18 06:25:23;;;;;;;4.40;4.03;;;26.70;58.40;;;;;;4999437;28;20501;-84
2022/06/18 06:27:50;;;;;;;4.77;4.33;;;27.10;58.30;;;;;;4999590;28;20449;-85
2022/06/18 06:30:18;;;;;;;4.33;3.90;;;27.10;57.40;;;;;;5012592;28;20463;-84
2022/06/18 06:32:45;;;;;;;5.03;4.50;;;27.50;57.80;;;;;;5011827;28;20459;-84
2022/06/18 06:35:12;;;;;;;4.57;4.17;;;27.50;57.00;;;;;;4998232;28;20452;-85
2022/06/18 06:37:40;;;;;;;4.87;4.47;;;27.70;56.70;;;;;;4996692;28;20451;-86
2022/06/18 06:40:10;;;;;;;5.20;3.97;;;27.90;56.50;;;;;;4997580;28;20467;-84
2022/06/18 06:42:41;;;;;;;4.90;4.50;;;28.30;55.90;;;;;;4996308;28;21003;-86
2022/06/18 06:45:12;;;;;;;4.30;4.00;;;28.80;55.20;;;;;;4996363;28;20456;-85
2022/06/18 06:47:39;;;;;;;5.43;4.20;;;29.00;54.70;;;;;;4996389;28;20451;-86
2022/06/18 06:50:06;;;;;;;5.40;4.40;;;29.20;54.10;;;;;;4996289;28;20453;-86
2022/06/18 06:52:33;;;;;;;4.30;4.00;;;28.90;54.60;;;;;;4995654;28;20474;-86
2022/06/18 06:57:43;;;;;;;5.03;4.60;;;29.20;53.70;;;;;;4995598;28;20493;-85
2022/06/18 07:00:11;;;;;;;4.53;3.60;;;28.90;54.40;;;;;;4996027;28;20517;-85
2022/06/18 07:02:39;;;;;;;4.20;3.90;;;29.00;54.30;;;;;;4996072;28;21003;-85
2022/06/18 07:05:06;;;;;;;4.03;3.67;;;29.80;53.40;;;;;;4995691;28;20943;-86
2022/06/18 07:07:33;;;;;;;4.17;3.77;;;30.50;52.50;;;;;;4996824;28;20455;-84
2022/06/18 07:10:00;;;;;;;3.97;3.63;;;31.10;51.60;;;;;;4998570;28;20455;-84
2022/06/18 07:12:27;;;;;;;7.50;3.63;;;31.10;51.60;;;;;;4999086;28;20495;-85
2022/06/18 07:14:55;;;;;;;3.60;3.40;;;31.50;50.80;;;;;;4996512;28;20435;-85
2022/06/18 07:17:23;;;;;;;4.70;4.37;;;32.10;50.20;;;;;;4995823;28;20825;-85
2022/06/18 07:19:50;;;;;;;5.87;4.27;;;32.50;49.90;;;;;;4995867;28;20451;-87
2022/06/18 07:22:17;;;;;;;4.57;4.17;;;32.80;49.00;;;;;;4994933;28;20502;-85
2022/06/18 07:24:44;;;;;;;4.20;3.80;;;33.10;48.40;;;;;;4996078;28;20455;-82
2022/06/18 07:27:10;;;;;;;5.60;4.07;;;32.70;48.40;;;;;;4996054;28;20459;-85
2022/06/18 07:29:38;;;;;;;4.53;4.13;;;32.70;48.70;;;;;;4997362;28;20867;-85
2022/06/18 07:32:13;;;;;;;5.70;4.50;;;32.90;48.30;;;;;;5003184;28;20533;-85
2022/06/18 07:34:40;;;;;;;4.60;4.10;;;33.10;47.80;;;;;;5003501;28;20522;-85
2022/06/18 07:37:07;;;;;;;4.50;4.10;;;33.40;48.00;;;;;;5003379;28;20435;-85
2022/06/18 07:39:34;;;;;;;4.17;3.87;;;33.80;47.60;;;;;;5005388;28;20443;-86
2022/06/18 07:42:02;;;;;;;4.43;4.10;;;34.00;46.60;;;;;;5003613;28;20439;-86
2022/06/18 07:44:29;;;;;;;6.20;4.60;;;34.10;46.40;;;;;;5002312;28;20442;-86
2022/06/18 07:46:58;;;;;;;5.40;4.00;;;34.10;45.70;;;;;;5003598;28;20447;-86
2022/06/18 07:49:26;;;;;;;10.10;3.90;;;34.40;46.20;;;;;;5007100;28;20437;-86
2022/06/18 07:51:53;;;;;;;4.13;3.83;;;34.60;45.50;;;;;;5004713;28;20442;-86
2022/06/18 07:54:21;;;;;;;5.13;4.10;;;35.00;44.60;;;;;;5004649;28;20479;-87
2022/06/18 07:56:48;;;;;;;6.77;4.47;;;35.00;44.60;;;;;;5004015;28;20443;-82
2022/06/18 07:59:15;;;;;;;4.07;3.70;;;34.80;44.80;;;;;;5003522;28;20450;-82
2022/06/18 08:01:42;;;;;;;6.70;3.67;;;35.30;44.80;;;;;;5013973;28;20510;-82
2022/06/18 08:04:09;;;;;;;4.83;4.43;;;35.50;44.10;;;;;;5020355;28;20479;-82
2022/06/18 08:06:37;;;;;;;4.40;4.00;;;35.70;44.30;;;;;;5014610;28;20450;-83
2022/06/18 08:09:04;;;;;;;4.27;3.70;;;36.00;44.10;;;;;;5009053;28;20804;-84
2022/06/18 08:11:31;;;;;;;4.20;3.90;;;35.90;43.70;;;;;;5011625;28;20446;-87
2022/06/18 08:13:58;;;;;;;3.93;3.63;;;36.10;42.90;;;;;;5005904;28;20891;-81
2022/06/18 08:16:25;;;;;;;3.40;3.20;;;36.50;43.00;;;;;;5003391;28;20446;-82
2022/06/18 08:18:52;;;;;;;5.70;3.90;;;37.20;41.70;;;;;;5004378;28;20469;-82
2022/06/18 08:21:23;;;;;;;4.63;3.80;;;37.90;41.20;;;;;;5003232;28;21263;-80
2022/06/18 08:23:53;;;;;;;4.07;3.77;;;38.10;40.70;;;;;;5003137;28;20471;-83
2022/06/18 08:26:20;;;;;;;3.40;3.10;;;38.70;40.10;;;;;;5011153;28;20480;-83
2022/06/18 08:28:47;;;;;;;6.60;3.67;;;38.50;38.40;;;;;;5018726;28;20454;-81
2022/06/18 08:31:14;;;;;;;5.17;3.23;;;38.40;39.60;;;;;;5011863;28;20470;-82
2022/06/18 08:33:41;;;;;;;5.20;3.33;;;38.10;38.50;;;;;;5004930;28;20490;-82
2022/06/18 08:36:12;;;;;;;3.27;2.97;;;38.40;39.90;;;;;;5010634;28;20450;-82
2022/06/18 08:38:40;;;;;;;4.00;3.47;;;37.70;38.70;;;;;;5010522;28;20466;-82
2022/06/18 08:41:27;;;;;;;3.40;3.20;;;37.00;40.30;;;;;;5020889;28;20449;-82
2022/06/18 08:44:18;;;;;;;5.67;3.47;;;37.70;37.80;;;;;;5015393;28;20473;-82
2022/06/18 08:46:51;;;;;;;2.90;2.70;;;38.90;37.20;;;;;;5003845;28;20449;-82
2022/06/18 08:49:45;;;;;;;4.27;3.93;;;39.00;36.00;;;;;;5011575;28;20534;-82
2022/06/18 08:52:31;;;;;;;3.60;3.30;;;39.10;36.10;;;;;;5004576;28;20469;-83
2022/06/18 08:55:06;;;;;;;4.20;3.77;;;39.20;36.00;;;;;;5013313;28;20497;-83
2022/06/18 08:57:40;;;;;;;5.83;2.53;;;39.60;35.10;;;;;;5003783;28;20448;-82
2022/06/18 09:00:13;;;;;;;2.73;2.53;;;40.10;33.90;;;;;;4992549;28;20443;-82
2022/06/18 09:02:46;;;;;;;3.20;2.80;;;40.60;34.20;;;;;;4983870;28;20499;-82
2022/06/18 09:05:23;;;;;;;3.00;2.80;;;40.60;33.70;;;;;;4995405;28;20435;-82
2022/06/18 09:08:32;;;;;;;3.30;3.00;;;41.00;33.60;;;;;;5009102;28;20431;-83
2022/06/18 09:11:13;;;;;;;3.43;3.23;;;40.50;33.90;;;;;;4918656;29;20443;-83
2022/06/18 09:13:46;;;;;;;3.50;2.40;;;40.70;32.70;;;;;;4915595;29;20490;-83
2022/06/18 09:16:18;;;;;;;3.43;2.97;;;39.60;33.70;;;;;;4951380;28;20517;-82
2022/06/18 09:18:48;;;;;;;4.20;3.00;;;40.20;33.80;;;;;;4978510;28;20814;-83
2022/06/18 09:21:21;;;;;;;4.70;2.93;;;40.70;33.50;;;;;;4977568;28;20455;-83
2022/06/18 09:23:53;;;;;;;4.37;3.30;;;41.00;33.10;;;;;;4976818;28;20980;-82
2022/06/18 09:26:23;;;;;;;3.00;2.80;;;40.50;32.00;;;;;;4976797;28;20467;-82
2022/06/18 09:28:57;;;;;;;5.70;3.43;;;40.50;32.80;;;;;;4979586;28;20447;-83
2022/06/18 09:31:32;;;;;;;3.10;2.90;;;41.30;32.00;;;;;;4981014;28;20829;-83
2022/06/18 09:34:05;;;;;;;3.03;2.83;;;42.30;31.00;;;;;;4980547;28;20513;-83
2022/06/18 09:36:37;;;;;;;3.30;2.60;;;43.00;30.00;;;;;;4980202;28;20871;-83
2022/06/18 09:39:08;;;;;;;2.93;2.60;;;42.60;29.90;;;;;;4979814;28;20451;-84
2022/06/18 09:41:38;;;;;;;2.57;1.80;;;42.80;28.40;;;;;;4980089;28;20456;-83
2022/06/18 09:44:13;;;;;;;2.60;2.40;;;41.60;27.60;;;;;;4979185;28;21075;-83
2022/06/18 09:46:45;;;;;;;2.20;2.00;;;41.20;29.20;;;;;;4978513;28;20534;-83
2022/06/18 09:49:12;;;;;;;3.40;2.40;;;41.90;28.50;;;;;;4990019;28;20506;-82
2022/06/18 09:51:44;;;;;;;2.30;1.93;;;41.30;28.30;;;;;;4983235;28;20466;-83
2022/06/18 09:54:15;;;;;;;1.83;1.70;;;42.00;28.90;;;;;;4979082;28;20511;-83
2022/06/18 09:56:46;;;;;;;1.87;1.50;;;43.20;26.20;;;;;;4978421;28;20807;-83
2022/06/18 09:59:18;;;;;;;4.07;1.83;;;42.90;26.20;;;;;;4978377;28;20432;-83
2022/06/18 10:01:49;;;;;;;2.17;1.70;;;42.80;25.90;;;;;;4978652;28;20451;-83
2022/06/18 10:07:05;;;;;;;2.13;1.70;;;44.20;26.10;;;;;;4978228;28;20503;-83
2022/06/18 10:09:35;;;;;;;1.80;1.70;;;44.00;25.30;;;;;;4978973;28;20447;-83
2022/06/18 10:12:14;;;;;;;1.73;1.50;;;43.20;25.60;;;;;;4978083;28;20820;-83
2022/06/18 10:14:44;;;;;;;2.10;1.70;;;41.70;26.30;;;;;;4977946;28;20475;-84
2022/06/18 10:17:25;;;;;;;2.50;1.87;;;42.50;26.20;;;;;;4978556;28;20456;-83
2022/06/18 10:20:02;;;;;;;1.77;1.67;;;42.70;25.60;;;;;;4978226;28;20535;-83
2022/06/18 10:22:37;;;;;;;2.20;1.90;;;42.60;26.60;;;;;;4977248;28;20494;-83
2022/06/18 10:25:12;;;;;;;2.73;1.80;;;43.60;25.60;;;;;;4978767;28;20443;-83
2022/06/18 10:27:47;;;;;;;2.00;1.73;;;43.50;25.80;;;;;;4980392;28;20454;-83
2022/06/18 10:30:22;;;;;;;2.50;1.87;;;43.50;25.40;;;;;;4982660;28;20460;-82
2022/06/18 10:33:00;;;;;;;2.00;1.80;;;43.70;25.50;;;;;;4999099;28;20444;-82
2022/06/18 10:35:44;;;;;;;3.40;2.40;;;43.60;26.20;;;;;;5000940;28;20506;-80
2022/06/18 10:38:22;;;;;;;2.67;2.40;;;44.20;26.30;;;;;;5001333;28;20443;-80
2022/06/18 10:40:58;;;;;;;4.63;2.10;;;44.50;26.00;;;;;;4997763;28;20447;-84
2022/06/18 10:43:37;;;;;;;2.10;1.90;;;44.20;26.00;;;;;;4985205;28;20482;-83
2022/06/18 10:46:10;;;;;;;2.03;1.73;;;43.80;24.90;;;;;;4998623;28;20432;-81
2022/06/18 10:48:37;;;;;;;1.97;1.77;;;43.80;24.40;;;;;;5000409;28;20446;-81
2022/06/18 10:51:04;;;;;;;2.00;1.90;;;44.10;25.10;;;;;;5000188;28;20440;-81
2022/06/18 10:53:36;;;;;;;2.30;2.10;;;43.70;24.50;;;;;;4982185;28;20464;-84
2022/06/18 10:56:06;;;;;;;2.20;1.90;;;42.80;25.00;;;;;;4978717;28;20471;-82
2022/06/18 10:58:33;;;;;;;3.10;1.90;;;42.40;25.90;;;;;;4980307;28;20439;-83
2022/06/18 11:01:02;;;;;;;2.27;1.33;;;43.10;25.80;;;;;;4979511;28;20478;-83
2022/06/18 11:03:33;;;;;;;2.40;2.20;;;43.00;25.10;;;;;;4978273;28;21011;-83
2022/06/18 11:06:05;;;;;;;2.43;2.10;;;43.40;25.80;;;;;;4979293;28;20452;-83
2022/06/18 11:08:35;;;;;;;2.23;2.03;;;42.80;25.70;;;;;;4977918;28;20448;-83
2022/06/18 11:11:06;;;;;;;2.53;2.10;;;43.00;26.50;;;;;;4977160;28;20945;-83
2022/06/18 11:13:35;;;;;;;3.63;2.20;;;42.40;26.30;;;;;;4977301;28;20456;-83
2022/06/18 11:16:21;;;;;;;2.17;1.50;;;42.30;25.90;;;;;;4976434;28;20469;-82
2022/06/18 11:18:53;;;;;;;2.50;2.30;;;43.10;25.70;;;;;;4978780;28;20451;-82
2022/06/18 11:21:32;;;;;;;3.10;2.17;;;43.60;25.40;;;;;;4977224;28;20452;-82
2022/06/18 11:24:02;;;;;;;2.80;2.60;;;44.30;25.00;;;;;;4979064;28;20522;-83
2022/06/18 11:26:30;;;;;;;2.13;1.90;;;43.40;26.20;;;;;;4982225;28;20486;-83
2022/06/18 11:29:01;;;;;;;1.80;1.70;;;44.90;25.80;;;;;;4978999;28;20455;-83
2022/06/18 11:31:31;;;;;;;3.73;2.07;;;45.20;24.60;;;;;;4985958;28;20474;-82
2022/06/18 11:34:03;;;;;;;3.43;1.83;;;44.30;24.30;;;;;;4982777;28;20495;-82
2022/06/18 11:36:44;;;;;;;4.20;2.70;;;42.40;25.00;;;;;;4987295;28;20456;-83
2022/06/18 11:39:25;;;;;;;3.47;1.83;;;42.90;25.40;;;;;;4984947;28;20467;-80
2022/06/18 11:41:57;;;;;;;3.97;1.83;;;42.20;25.00;;;;;;4976796;28;20451;-82
2022/06/18 11:44:29;;;;;;;2.90;2.30;;;43.10;24.90;;;;;;4987514;28;20448;-82
2022/06/18 11:47:02;;;;;;;2.27;1.87;;;43.00;25.40;;;;;;4979098;28;20448;-81
2022/06/18 11:49:34;;;;;;;2.90;2.00;;;42.50;25.60;;;;;;4976945;28;20459;-82
2022/06/18 11:52:04;;;;;;;2.03;1.83;;;42.80;25.80;;;;;;4993603;28;20428;-81
2022/06/18 11:54:37;;;;;;;4.07;2.07;;;43.10;25.50;;;;;;4987398;28;20483;-82
2022/06/18 11:57:14;;;;;;;3.10;1.70;;;44.20;25.00;;;;;;4977405;28;20467;-82
2022/06/18 11:59:46;;;;;;;2.43;2.00;;;44.00;25.30;;;;;;4991251;28;20462;-81
2022/06/18 12:02:19;;;;;;;3.33;1.87;;;44.90;25.10;;;;;;4991371;28;20455;-82
2022/06/18 12:04:52;;;;;;;4.03;2.27;;;45.90;24.90;;;;;;4977798;28;20447;-83
2022/06/18 12:07:25;;;;;;;4.47;2.40;;;44.90;24.50;;;;;;4979295;28;20436;-82
2022/06/18 12:09:52;;;;;;;4.33;3.93;;;45.60;24.90;;;;;;4978278;28;20452;-82
2022/06/18 12:12:34;;;;;;;4.00;2.20;;;45.20;24.80;;;;;;4978177;28;20995;-82
2022/06/18 12:15:06;;;;;;;6.23;2.90;;;45.40;24.10;;;;;;4976574;28;20510;-83
2022/06/18 12:17:39;;;;;;;3.30;2.70;;;44.90;24.50;;;;;;5007569;23;20498;-83
2022/06/18 12:20:18;;;;;;;4.13;3.40;;;44.40;25.20;;;;;;4998796;28;20469;-81
2022/06/18 12:22:50;;;;;;;4.13;2.70;;;44.70;25.50;;;;;;4999077;28;20929;-83
2022/06/18 12:25:36;;;;;;;7.10;3.27;;;45.20;25.30;;;;;;4998107;28;20447;-83
2022/06/18 12:28:17;;;;;;;6.17;2.70;;;45.70;25.00;;;;;;5000564;28;20494;-81
2022/06/18 12:30:49;;;;;;;4.30;2.37;;;46.70;24.80;;;;;;5005155;28;20451;-84
2022/06/18 12:33:25;;;;;;;5.07;3.17;;;46.90;24.20;;;;;;5002884;28;20970;-83
2022/06/18 12:36:02;;;;;;;6.03;3.00;;;47.10;23.90;;;;;;4999548;28;20495;-82
2022/06/18 12:38:36;;;;;;;6.80;3.10;;;46.80;24.50;;;;;;4997433;28;20520;-83
2022/06/18 12:41:13;;;;;;;4.70;2.73;;;44.90;24.40;;;;;;4996044;28;20497;-81
2022/06/18 12:43:48;;;;;;;3.53;2.70;;;43.80;25.50;;;;;;4996756;28;20450;-82
2022/06/18 12:46:22;;;;;;;11.00;3.97;;;43.70;25.60;;;;;;4997750;28;20477;-82
2022/06/18 12:49:01;;;;;;;6.57;3.40;;;43.40;25.30;;;;;;5002888;28;20474;-81
2022/06/18 12:51:35;;;;;;;9.23;3.47;;;43.70;25.80;;;;;;5003203;28;20450;-83
2022/06/18 12:54:42;;;;;;;7.30;3.67;;;44.50;26.30;;;;;;5017965;28;20473;-82
2022/06/18 12:57:19;;;;;;;8.10;3.60;;;44.30;25.70;;;;;;4939635;29;20451;-81
2022/06/18 12:59:55;;;;;;;10.73;3.40;;;43.00;25.70;;;;;;4935869;29;20465;-81
2022/06/18 13:02:31;;;;;;;9.17;4.10;;;42.40;26.70;;;;;;4985353;28;20427;-81
2022/06/18 13:05:10;;;;;;;10.87;3.47;;;41.70;27.50;;;;;;5010398;28;20465;-81
2022/06/18 13:07:49;;;;;;;6.73;3.63;;;41.60;27.60;;;;;;5004600;28;20466;-83
2022/06/18 13:10:25;;;;;;;7.00;3.43;;;42.80;28.20;;;;;;5003242;28;20910;-90
2022/06/18 13:13:12;;;;;;;5.87;3.60;;;44.00;27.50;;;;;;4999814;28;20446;-84
2022/06/18 13:15:44;;;;;;;8.13;3.37;;;43.80;27.50;;;;;;5000941;28;20478;-82
2022/06/18 13:18:19;;;;;;;6.40;3.63;;;43.40;28.00;;;;;;5002982;28;20478;-84